sensor_id;sensor_type;location;lat;lon;timestamp;P1;durP1;ratioP1;P2;durP2;ratioP2
58966;SDS011;44744;51.894;5.080;2022-08-03T00:00:43;6.40;;;2.30;;
58966;SDS011;44744;51.894;5.080;2022-08-03T00:01:43;9.90;;;2.10;;
58966;SDS011;44744;51.894;5.080;2022-08-03T00:02:44;7.20;;;2.80;;
58966;SDS011;44744;51.894;5.080;2022-08-03T00:03:44;5.90;;;2.20;;
58966;SDS011;44744;51.894;5.080;2022-08-03T00:04:44;9.70;;;2.40;;
58966;SDS011;44744;51.894;5.080;2022-08-03T00:05:45;6.80;;;2.30;;
58966;SDS011;44744;51.894;5.080;2022-08-03T00:06:45;7.70;;;2.10;;
58966;SDS011;44744;51.894;5.080;2022-08-03T00:07:45;5.70;;;2.30;;
58966;SDS011;44744;51.894;5.080;2022-08-03T00:08:46;7.60;;;2.30;;
58966;SDS011;44744;51.894;5.080;2022-08-03T00:09:46;5.70;;;2.10;;
58966;SDS011;44744;51.894;5.080;2022-08-03T00:10:46;9.90;;;2.10;;
58966;SDS011;44744;51.894;5.080;2022-08-03T00:11:47;6.30;;;2.80;;
58966;SDS011;44744;51.894;5.080;2022-08-03T00:12:47;6.40;;;2.00;;
58966;SDS011;44744;51.894;5.080;2022-08-03T00:13:47;6.40;;;2.50;;
58966;SDS011;44744;51.894;5.080;2022-08-03T00:14:48;6.90;;;2.40;;
58966;SDS011;44744;51.894;5.080;2022-08-03T00:15:48;9.80;;;2.40;;
58966;SDS011;44744;51.894;5.080;2022-08-03T00:16:49;8.50;;;2.40;;
58966;SDS011;44744;51.894;5.080;2022-08-03T00:17:49;6.30;;;2.00;;
58966;SDS011;44744;51.894;5.080;2022-08-03T00:18:49;8.40;;;2.50;;
58966;SDS011;44744;51.894;5.080;2022-08-03T00:19:50;8.90;;;2.70;;
58966;SDS011;44744;51.894;5.080;2022-08-03T00:20:50;5.30;;;2.30;;
58966;SDS011;44744;51.894;5.080;2022-08-03T00:21:50;8.00;;;2.20;;
58966;SDS011;44744;51.894;5.080;2022-08-03T00:22:50;4.70;;;2.00;;
58966;SDS011;44744;51.894;5.080;2022-08-03T00:23:51;11.00;;;2.10;;
58966;SDS011;44744;51.894;5.080;2022-08-03T00:24:51;6.00;;;2.40;;
58966;SDS011;44744;51.894;5.080;2022-08-03T00:25:51;7.60;;;2.40;;
58966;SDS011;44744;51.894;5.080;2022-08-03T00:26:52;5.90;;;2.70;;
58966;SDS011;44744;51.894;5.080;2022-08-03T00:27:52;8.30;;;2.30;;
58966;SDS011;44744;51.894;5.080;2022-08-03T00:28:52;6.20;;;2.00;;
58966;SDS011;44744;51.894;5.080;2022-08-03T00:29:53;9.10;;;2.30;;
58966;SDS011;44744;51.894;5.080;2022-08-03T00:30:53;7.30;;;2.10;;
58966;SDS011;44744;51.894;5.080;2022-08-03T00:31:54;8.00;;;2.50;;
58966;SDS011;44744;51.894;5.080;2022-08-03T00:32:54;6.40;;;2.20;;
58966;SDS011;44744;51.894;5.080;2022-08-03T00:33:54;5.40;;;2.00;;
58966;SDS011;44744;51.894;5.080;2022-08-03T00:34:55;5.80;;;2.40;;
58966;SDS011;44744;51.894;5.080;2022-08-03T00:35:55;10.70;;;2.50;;
58966;SDS011;44744;51.894;5.080;2022-08-03T00:36:55;8.10;;;2.30;;
58966;SDS011;44744;51.894;5.080;2022-08-03T00:37:55;9.00;;;2.50;;
58966;SDS011;44744;51.894;5.080;2022-08-03T00:38:56;6.40;;;2.60;;
58966;SDS011;44744;51.894;5.080;2022-08-03T00:39:56;7.20;;;1.90;;
58966;SDS011;44744;51.894;5.080;2022-08-03T00:40:57;10.60;;;2.50;;
58966;SDS011;44744;51.894;5.080;2022-08-03T00:42:00;9.20;;;2.70;;
58966;SDS011;44744;51.894;5.080;2022-08-03T00:43:02;8.50;;;2.30;;
58966;SDS011;44744;51.894;5.080;2022-08-03T00:44:04;12.10;;;2.30;;
58966;SDS011;44744;51.894;5.080;2022-08-03T00:45:04;6.90;;;2.50;;
58966;SDS011;44744;51.894;5.080;2022-08-03T00:46:05;7.00;;;2.40;;
58966;SDS011;44744;51.894;5.080;2022-08-03T00:47:05;6.30;;;2.10;;
58966;SDS011;44744;51.894;5.080;2022-08-03T00:48:07;8.50;;;2.20;;
58966;SDS011;44744;51.894;5.080;2022-08-03T00:49:08;11.70;;;2.20;;
58966;SDS011;44744;51.894;5.080;2022-08-03T00:50:09;6.20;;;2.20;;
58966;SDS011;44744;51.894;5.080;2022-08-03T00:51:09;7.10;;;2.40;;
58966;SDS011;44744;51.894;5.080;2022-08-03T00:52:10;7.00;;;2.60;;
58966;SDS011;44744;51.894;5.080;2022-08-03T00:53:12;8.00;;;2.10;;
58966;SDS011;44744;51.894;5.080;2022-08-03T00:54:13;7.40;;;2.70;;
58966;SDS011;44744;51.894;5.080;2022-08-03T00:55:14;4.30;;;2.30;;
58966;SDS011;44744;51.894;5.080;2022-08-03T00:56:15;4.80;;;2.30;;
58966;SDS011;44744;51.894;5.080;2022-08-03T00:57:16;6.50;;;2.40;;
58966;SDS011;44744;51.894;5.080;2022-08-03T00:58:16;6.30;;;2.20;;
58966;SDS011;44744;51.894;5.080;2022-08-03T00:59:17;5.90;;;2.30;;
58966;SDS011;44744;51.894;5.080;2022-08-03T01:00:19;6.80;;;2.30;;
58966;SDS011;44744;51.894;5.080;2022-08-03T01:01:21;7.00;;;2.00;;
58966;SDS011;44744;51.894;5.080;2022-08-03T01:02:22;6.70;;;2.00;;
58966;SDS011;44744;51.894;5.080;2022-08-03T01:03:22;5.90;;;2.60;;
58966;SDS011;44744;51.894;5.080;2022-08-03T01:04:22;6.10;;;2.20;;
58966;SDS011;44744;51.894;5.080;2022-08-03T01:05:23;9.10;;;2.30;;
58966;SDS011;44744;51.894;5.080;2022-08-03T01:06:25;9.80;;;3.30;;
58966;SDS011;44744;51.894;5.080;2022-08-03T01:09:32;7.00;;;2.30;;
58966;SDS011;44744;51.894;5.080;2022-08-03T01:12:13;8.50;;;2.60;;
58966;SDS011;44744;51.894;5.080;2022-08-03T01:13:26;9.30;;;2.90;;
58966;SDS011;44744;51.894;5.080;2022-08-03T01:15:37;5.90;;;2.80;;
58966;SDS011;44744;51.894;5.080;2022-08-03T01:16:59;6.00;;;2.50;;
58966;SDS011;44744;51.894;5.080;2022-08-03T01:18:17;13.00;;;3.00;;
58966;SDS011;44744;51.894;5.080;2022-08-03T01:19:42;7.10;;;2.80;;
58966;SDS011;44744;51.894;5.080;2022-08-03T01:20:49;11.40;;;3.20;;
58966;SDS011;44744;51.894;5.080;2022-08-03T01:23:23;6.30;;;2.90;;
58966;SDS011;44744;51.894;5.080;2022-08-03T01:24:34;9.60;;;2.80;;
58966;SDS011;44744;51.894;5.080;2022-08-03T01:27:11;7.60;;;2.70;;
58966;SDS011;44744;51.894;5.080;2022-08-03T01:31:00;9.80;;;3.20;;
58966;SDS011;44744;51.894;5.080;2022-08-03T01:32:07;11.00;;;3.00;;
58966;SDS011;44744;51.894;5.080;2022-08-03T01:33:19;8.70;;;3.60;;
58966;SDS011;44744;51.894;5.080;2022-08-03T01:34:24;7.20;;;2.90;;
58966;SDS011;44744;51.894;5.080;2022-08-03T01:36:35;8.60;;;2.40;;
58966;SDS011;44744;51.894;5.080;2022-08-03T01:37:40;6.60;;;2.60;;
58966;SDS011;44744;51.894;5.080;2022-08-03T01:38:57;10.30;;;2.60;;
58966;SDS011;44744;51.894;5.080;2022-08-03T01:40:01;11.00;;;2.60;;
58966;SDS011;44744;51.894;5.080;2022-08-03T01:41:12;9.70;;;3.30;;
58966;SDS011;44744;51.894;5.080;2022-08-03T01:42:17;6.80;;;2.40;;
58966;SDS011;44744;51.894;5.080;2022-08-03T01:43:20;8.60;;;2.50;;
58966;SDS011;44744;51.894;5.080;2022-08-03T01:44:25;8.50;;;2.60;;
58966;SDS011;44744;51.894;5.080;2022-08-03T01:45:29;9.90;;;2.40;;
58966;SDS011;44744;51.894;5.080;2022-08-03T01:46:31;13.60;;;3.00;;
58966;SDS011;44744;51.894;5.080;2022-08-03T01:47:33;8.50;;;2.60;;
58966;SDS011;44744;51.894;5.080;2022-08-03T01:48:38;7.50;;;2.60;;
58966;SDS011;44744;51.894;5.080;2022-08-03T01:49:42;6.60;;;2.40;;
58966;SDS011;44744;51.894;5.080;2022-08-03T01:50:43;9.10;;;3.00;;
58966;SDS011;44744;51.894;5.080;2022-08-03T01:51:46;11.90;;;3.60;;
58966;SDS011;44744;51.894;5.080;2022-08-03T01:52:47;7.40;;;2.50;;
58966;SDS011;44744;51.894;5.080;2022-08-03T01:53:49;8.60;;;2.90;;
58966;SDS011;44744;51.894;5.080;2022-08-03T01:54:52;7.10;;;2.20;;
58966;SDS011;44744;51.894;5.080;2022-08-03T01:55:53;11.40;;;2.70;;
58966;SDS011;44744;51.894;5.080;2022-08-03T01:56:56;8.10;;;3.10;;
58966;SDS011;44744;51.894;5.080;2022-08-03T01:57:58;8.00;;;2.50;;
58966;SDS011;44744;51.894;5.080;2022-08-03T01:59:02;9.60;;;2.60;;
58966;SDS011;44744;51.894;5.080;2022-08-03T02:00:03;6.80;;;2.20;;
58966;SDS011;44744;51.894;5.080;2022-08-03T02:01:04;8.40;;;3.00;;
58966;SDS011;44744;51.894;5.080;2022-08-03T02:02:06;7.00;;;2.80;;
58966;SDS011;44744;51.894;5.080;2022-08-03T02:04:08;12.00;;;3.70;;
58966;SDS011;44744;51.894;5.080;2022-08-03T02:05:11;6.90;;;2.90;;
58966;SDS011;44744;51.894;5.080;2022-08-03T02:06:13;11.80;;;2.60;;
58966;SDS011;44744;51.894;5.080;2022-08-03T02:07:15;10.60;;;3.60;;
58966;SDS011;44744;51.894;5.080;2022-08-03T02:08:16;9.30;;;3.00;;
58966;SDS011;44744;51.894;5.080;2022-08-03T02:09:19;13.30;;;3.50;;
58966;SDS011;44744;51.894;5.080;2022-08-03T02:10:20;7.80;;;3.20;;
58966;SDS011;44744;51.894;5.080;2022-08-03T02:11:22;6.60;;;3.00;;
58966;SDS011;44744;51.894;5.080;2022-08-03T02:12:23;10.10;;;3.30;;
58966;SDS011;44744;51.894;5.080;2022-08-03T02:13:25;8.00;;;3.20;;
58966;SDS011;44744;51.894;5.080;2022-08-03T02:14:27;12.60;;;3.30;;
58966;SDS011;44744;51.894;5.080;2022-08-03T02:15:28;10.20;;;3.20;;
58966;SDS011;44744;51.894;5.080;2022-08-03T02:16:32;12.20;;;3.20;;
58966;SDS011;44744;51.894;5.080;2022-08-03T02:17:33;16.50;;;3.40;;
58966;SDS011;44744;51.894;5.080;2022-08-03T02:18:35;9.50;;;3.40;;
58966;SDS011;44744;51.894;5.080;2022-08-03T02:19:39;6.30;;;2.50;;
58966;SDS011;44744;51.894;5.080;2022-08-03T02:20:41;14.60;;;4.00;;
58966;SDS011;44744;51.894;5.080;2022-08-03T02:21:43;7.90;;;3.00;;
58966;SDS011;44744;51.894;5.080;2022-08-03T02:22:45;10.30;;;3.20;;
58966;SDS011;44744;51.894;5.080;2022-08-03T02:23:45;10.10;;;3.00;;
58966;SDS011;44744;51.894;5.080;2022-08-03T02:24:46;9.60;;;3.00;;
58966;SDS011;44744;51.894;5.080;2022-08-03T02:25:49;10.20;;;3.70;;
58966;SDS011;44744;51.894;5.080;2022-08-03T02:26:52;9.70;;;3.10;;
58966;SDS011;44744;51.894;5.080;2022-08-03T02:27:55;11.20;;;3.30;;
58966;SDS011;44744;51.894;5.080;2022-08-03T02:29:02;10.20;;;3.20;;
58966;SDS011;44744;51.894;5.080;2022-08-03T02:30:12;8.80;;;3.20;;
58966;SDS011;44744;51.894;5.080;2022-08-03T02:31:14;11.50;;;2.80;;
58966;SDS011;44744;51.894;5.080;2022-08-03T02:32:19;7.20;;;2.90;;
58966;SDS011;44744;51.894;5.080;2022-08-03T02:33:27;8.80;;;3.30;;
58966;SDS011;44744;51.894;5.080;2022-08-03T02:34:32;6.40;;;2.80;;
58966;SDS011;44744;51.894;5.080;2022-08-03T02:35:34;8.70;;;2.70;;
58966;SDS011;44744;51.894;5.080;2022-08-03T02:36:36;7.50;;;3.20;;
58966;SDS011;44744;51.894;5.080;2022-08-03T02:37:40;8.70;;;2.70;;
58966;SDS011;44744;51.894;5.080;2022-08-03T02:38:43;11.60;;;3.10;;
58966;SDS011;44744;51.894;5.080;2022-08-03T02:39:50;9.60;;;3.10;;
58966;SDS011;44744;51.894;5.080;2022-08-03T02:40:56;9.00;;;3.00;;
58966;SDS011;44744;51.894;5.080;2022-08-03T02:41:58;9.30;;;2.60;;
58966;SDS011;44744;51.894;5.080;2022-08-03T02:43:04;11.90;;;3.50;;
58966;SDS011;44744;51.894;5.080;2022-08-03T02:44:08;7.50;;;2.60;;
58966;SDS011;44744;51.894;5.080;2022-08-03T02:45:11;10.20;;;2.80;;
58966;SDS011;44744;51.894;5.080;2022-08-03T02:46:14;5.60;;;2.90;;
58966;SDS011;44744;51.894;5.080;2022-08-03T02:47:19;13.10;;;2.90;;
58966;SDS011;44744;51.894;5.080;2022-08-03T02:48:21;8.10;;;3.40;;
58966;SDS011;44744;51.894;5.080;2022-08-03T02:49:25;12.00;;;2.90;;
58966;SDS011;44744;51.894;5.080;2022-08-03T02:50:28;7.10;;;2.60;;
58966;SDS011;44744;51.894;5.080;2022-08-03T02:51:30;8.90;;;2.90;;
58966;SDS011;44744;51.894;5.080;2022-08-03T02:52:32;10.00;;;3.00;;
58966;SDS011;44744;51.894;5.080;2022-08-03T02:53:35;5.90;;;2.40;;
58966;SDS011;44744;51.894;5.080;2022-08-03T02:54:36;6.80;;;2.80;;
58966;SDS011;44744;51.894;5.080;2022-08-03T02:55:38;6.70;;;2.40;;
58966;SDS011;44744;51.894;5.080;2022-08-03T02:56:40;11.00;;;2.50;;
58966;SDS011;44744;51.894;5.080;2022-08-03T02:58:43;9.70;;;3.00;;
58966;SDS011;44744;51.894;5.080;2022-08-03T02:59:46;10.10;;;2.90;;
58966;SDS011;44744;51.894;5.080;2022-08-03T03:00:49;9.70;;;2.70;;
58966;SDS011;44744;51.894;5.080;2022-08-03T03:01:51;9.70;;;3.00;;
58966;SDS011;44744;51.894;5.080;2022-08-03T03:02:55;9.00;;;2.80;;
58966;SDS011;44744;51.894;5.080;2022-08-03T03:03:57;8.10;;;3.20;;
58966;SDS011;44744;51.894;5.080;2022-08-03T03:04:59;10.60;;;2.60;;
58966;SDS011;44744;51.894;5.080;2022-08-03T03:06:01;12.00;;;3.10;;
58966;SDS011;44744;51.894;5.080;2022-08-03T03:07:02;7.90;;;3.10;;
58966;SDS011;44744;51.894;5.080;2022-08-03T03:08:03;7.30;;;2.60;;
58966;SDS011;44744;51.894;5.080;2022-08-03T03:09:04;9.10;;;2.60;;
58966;SDS011;44744;51.894;5.080;2022-08-03T03:10:05;11.80;;;3.30;;
58966;SDS011;44744;51.894;5.080;2022-08-03T03:11:07;8.30;;;3.20;;
58966;SDS011;44744;51.894;5.080;2022-08-03T03:12:09;9.60;;;2.90;;
58966;SDS011;44744;51.894;5.080;2022-08-03T03:13:12;8.40;;;2.90;;
58966;SDS011;44744;51.894;5.080;2022-08-03T03:14:14;10.20;;;3.00;;
58966;SDS011;44744;51.894;5.080;2022-08-03T03:15:17;9.50;;;2.50;;
58966;SDS011;44744;51.894;5.080;2022-08-03T03:16:18;13.80;;;2.80;;
58966;SDS011;44744;51.894;5.080;2022-08-03T03:17:19;9.70;;;3.20;;
58966;SDS011;44744;51.894;5.080;2022-08-03T03:18:20;9.50;;;2.90;;
58966;SDS011;44744;51.894;5.080;2022-08-03T03:19:22;11.40;;;3.30;;
58966;SDS011;44744;51.894;5.080;2022-08-03T03:20:24;7.10;;;3.00;;
58966;SDS011;44744;51.894;5.080;2022-08-03T03:21:25;8.80;;;3.00;;
58966;SDS011;44744;51.894;5.080;2022-08-03T03:22:26;11.80;;;3.00;;
58966;SDS011;44744;51.894;5.080;2022-08-03T03:23:28;9.50;;;3.20;;
58966;SDS011;44744;51.894;5.080;2022-08-03T03:24:30;11.20;;;3.40;;
58966;SDS011;44744;51.894;5.080;2022-08-03T03:25:31;10.10;;;3.30;;
58966;SDS011;44744;51.894;5.080;2022-08-03T03:26:32;10.30;;;3.10;;
58966;SDS011;44744;51.894;5.080;2022-08-03T03:27:33;12.20;;;4.10;;
58966;SDS011;44744;51.894;5.080;2022-08-03T03:28:34;10.80;;;3.30;;
58966;SDS011;44744;51.894;5.080;2022-08-03T03:29:35;11.10;;;3.80;;
58966;SDS011;44744;51.894;5.080;2022-08-03T03:30:36;12.60;;;3.90;;
58966;SDS011;44744;51.894;5.080;2022-08-03T03:31:37;12.60;;;4.10;;
58966;SDS011;44744;51.894;5.080;2022-08-03T03:32:38;10.70;;;3.80;;
58966;SDS011;44744;51.894;5.080;2022-08-03T03:33:38;11.50;;;3.40;;
58966;SDS011;44744;51.894;5.080;2022-08-03T03:34:38;23.50;;;3.60;;
58966;SDS011;44744;51.894;5.080;2022-08-03T03:35:40;11.40;;;3.60;;
58966;SDS011;44744;51.894;5.080;2022-08-03T03:37:41;10.60;;;3.30;;
58966;SDS011;44744;51.894;5.080;2022-08-03T03:38:42;14.10;;;3.40;;
58966;SDS011;44744;51.894;5.080;2022-08-03T03:39:42;13.00;;;4.10;;
58966;SDS011;44744;51.894;5.080;2022-08-03T03:40:43;14.30;;;3.70;;
58966;SDS011;44744;51.894;5.080;2022-08-03T03:41:43;11.20;;;3.60;;
58966;SDS011;44744;51.894;5.080;2022-08-03T03:42:43;8.80;;;3.20;;
58966;SDS011;44744;51.894;5.080;2022-08-03T03:43:44;6.50;;;3.00;;
58966;SDS011;44744;51.894;5.080;2022-08-03T03:44:45;12.40;;;3.70;;
58966;SDS011;44744;51.894;5.080;2022-08-03T03:45:46;10.20;;;3.20;;
58966;SDS011;44744;51.894;5.080;2022-08-03T03:46:47;10.80;;;3.10;;
58966;SDS011;44744;51.894;5.080;2022-08-03T03:47:47;10.50;;;3.50;;
58966;SDS011;44744;51.894;5.080;2022-08-03T03:48:48;11.20;;;3.70;;
58966;SDS011;44744;51.894;5.080;2022-08-03T03:49:48;6.70;;;3.50;;
58966;SDS011;44744;51.894;5.080;2022-08-03T03:50:49;11.20;;;3.30;;
58966;SDS011;44744;51.894;5.080;2022-08-03T03:51:53;10.50;;;3.80;;
58966;SDS011;44744;51.894;5.080;2022-08-03T03:52:54;11.30;;;3.40;;
58966;SDS011;44744;51.894;5.080;2022-08-03T03:53:55;9.90;;;3.60;;
58966;SDS011;44744;51.894;5.080;2022-08-03T03:54:57;8.40;;;3.20;;
58966;SDS011;44744;51.894;5.080;2022-08-03T03:55:57;12.00;;;4.00;;
58966;SDS011;44744;51.894;5.080;2022-08-03T03:56:58;8.50;;;3.10;;
58966;SDS011;44744;51.894;5.080;2022-08-03T03:57:58;9.30;;;3.30;;
58966;SDS011;44744;51.894;5.080;2022-08-03T03:58:58;10.80;;;3.00;;
58966;SDS011;44744;51.894;5.080;2022-08-03T03:59:58;12.70;;;3.30;;
58966;SDS011;44744;51.894;5.080;2022-08-03T04:00:59;10.10;;;3.40;;
58966;SDS011;44744;51.894;5.080;2022-08-03T04:02:00;9.20;;;3.50;;
58966;SDS011;44744;51.894;5.080;2022-08-03T04:03:00;11.50;;;3.60;;
58966;SDS011;44744;51.894;5.080;2022-08-03T04:04:01;14.30;;;4.30;;
58966;SDS011;44744;51.894;5.080;2022-08-03T04:05:01;12.50;;;3.50;;
58966;SDS011;44744;51.894;5.080;2022-08-03T04:06:01;10.90;;;2.80;;
58966;SDS011;44744;51.894;5.080;2022-08-03T04:07:02;8.60;;;3.70;;
58966;SDS011;44744;51.894;5.080;2022-08-03T04:08:04;11.50;;;3.60;;
58966;SDS011;44744;51.894;5.080;2022-08-03T04:09:07;12.00;;;3.50;;
58966;SDS011;44744;51.894;5.080;2022-08-03T04:10:21;13.90;;;3.40;;
58966;SDS011;44744;51.894;5.080;2022-08-03T04:12:46;10.50;;;3.60;;
58966;SDS011;44744;51.894;5.080;2022-08-03T04:13:58;12.30;;;3.90;;
58966;SDS011;44744;51.894;5.080;2022-08-03T04:15:02;8.90;;;3.70;;
58966;SDS011;44744;51.894;5.080;2022-08-03T04:16:05;13.00;;;3.50;;
58966;SDS011;44744;51.894;5.080;2022-08-03T04:17:08;7.90;;;3.30;;
58966;SDS011;44744;51.894;5.080;2022-08-03T04:18:11;13.80;;;3.20;;
58966;SDS011;44744;51.894;5.080;2022-08-03T04:19:16;12.60;;;3.70;;
58966;SDS011;44744;51.894;5.080;2022-08-03T04:20:20;11.90;;;4.40;;
58966;SDS011;44744;51.894;5.080;2022-08-03T04:21:22;10.60;;;3.40;;
58966;SDS011;44744;51.894;5.080;2022-08-03T04:22:24;9.80;;;3.00;;
58966;SDS011;44744;51.894;5.080;2022-08-03T04:23:28;11.40;;;3.40;;
58966;SDS011;44744;51.894;5.080;2022-08-03T04:24:33;11.80;;;3.60;;
58966;SDS011;44744;51.894;5.080;2022-08-03T04:25:37;11.90;;;3.60;;
58966;SDS011;44744;51.894;5.080;2022-08-03T04:27:40;12.10;;;3.50;;
58966;SDS011;44744;51.894;5.080;2022-08-03T04:28:42;12.60;;;3.60;;
58966;SDS011;44744;51.894;5.080;2022-08-03T04:29:46;13.10;;;3.70;;
58966;SDS011;44744;51.894;5.080;2022-08-03T04:30:48;11.20;;;3.30;;
58966;SDS011;44744;51.894;5.080;2022-08-03T04:31:49;9.50;;;3.30;;
58966;SDS011;44744;51.894;5.080;2022-08-03T04:32:52;11.10;;;3.20;;
58966;SDS011;44744;51.894;5.080;2022-08-03T04:33:55;11.00;;;3.50;;
58966;SDS011;44744;51.894;5.080;2022-08-03T04:34:56;13.10;;;3.60;;
58966;SDS011;44744;51.894;5.080;2022-08-03T04:35:57;11.10;;;3.70;;
58966;SDS011;44744;51.894;5.080;2022-08-03T04:37:01;9.30;;;3.20;;
58966;SDS011;44744;51.894;5.080;2022-08-03T04:38:07;9.70;;;3.30;;
58966;SDS011;44744;51.894;5.080;2022-08-03T04:40:38;13.80;;;4.20;;
58966;SDS011;44744;51.894;5.080;2022-08-03T04:41:40;13.50;;;3.70;;
58966;SDS011;44744;51.894;5.080;2022-08-03T04:42:43;10.70;;;3.50;;
58966;SDS011;44744;51.894;5.080;2022-08-03T04:43:44;11.50;;;3.30;;
58966;SDS011;44744;51.894;5.080;2022-08-03T04:44:47;10.10;;;3.20;;
58966;SDS011;44744;51.894;5.080;2022-08-03T04:45:48;10.30;;;3.50;;
58966;SDS011;44744;51.894;5.080;2022-08-03T04:46:50;10.30;;;3.60;;
58966;SDS011;44744;51.894;5.080;2022-08-03T04:47:51;11.40;;;3.70;;
58966;SDS011;44744;51.894;5.080;2022-08-03T04:48:53;10.50;;;3.70;;
58966;SDS011;44744;51.894;5.080;2022-08-03T04:49:54;9.60;;;3.10;;
58966;SDS011;44744;51.894;5.080;2022-08-03T04:50:54;13.50;;;3.90;;
58966;SDS011;44744;51.894;5.080;2022-08-03T04:51:55;13.20;;;3.80;;
58966;SDS011;44744;51.894;5.080;2022-08-03T04:52:55;11.80;;;3.70;;
58966;SDS011;44744;51.894;5.080;2022-08-03T04:53:56;8.90;;;3.40;;
58966;SDS011;44744;51.894;5.080;2022-08-03T04:54:56;14.90;;;3.90;;
58966;SDS011;44744;51.894;5.080;2022-08-03T04:56:02;8.40;;;3.00;;
58966;SDS011;44744;51.894;5.080;2022-08-03T04:57:03;13.50;;;4.20;;
58966;SDS011;44744;51.894;5.080;2022-08-03T04:58:04;11.80;;;4.10;;
58966;SDS011;44744;51.894;5.080;2022-08-03T04:59:04;9.20;;;3.60;;
58966;SDS011;44744;51.894;5.080;2022-08-03T05:00:05;10.20;;;3.60;;
58966;SDS011;44744;51.894;5.080;2022-08-03T05:01:05;11.20;;;3.70;;
58966;SDS011;44744;51.894;5.080;2022-08-03T05:02:06;7.60;;;3.50;;
58966;SDS011;44744;51.894;5.080;2022-08-03T05:03:06;9.70;;;3.60;;
58966;SDS011;44744;51.894;5.080;2022-08-03T05:04:06;10.80;;;4.10;;
58966;SDS011;44744;51.894;5.080;2022-08-03T05:05:07;9.80;;;3.60;;
58966;SDS011;44744;51.894;5.080;2022-08-03T05:06:08;11.50;;;4.20;;
58966;SDS011;44744;51.894;5.080;2022-08-03T05:07:08;15.50;;;4.30;;
58966;SDS011;44744;51.894;5.080;2022-08-03T05:08:08;10.80;;;4.40;;
58966;SDS011;44744;51.894;5.080;2022-08-03T05:09:08;9.60;;;3.50;;
58966;SDS011;44744;51.894;5.080;2022-08-03T05:10:09;11.80;;;4.10;;
58966;SDS011;44744;51.894;5.080;2022-08-03T05:11:11;18.40;;;3.80;;
58966;SDS011;44744;51.894;5.080;2022-08-03T05:12:11;8.90;;;3.40;;
58966;SDS011;44744;51.894;5.080;2022-08-03T05:13:11;10.60;;;3.50;;
58966;SDS011;44744;51.894;5.080;2022-08-03T05:14:12;13.40;;;3.70;;
58966;SDS011;44744;51.894;5.080;2022-08-03T05:15:12;15.20;;;4.30;;
58966;SDS011;44744;51.894;5.080;2022-08-03T05:16:13;8.50;;;3.40;;
58966;SDS011;44744;51.894;5.080;2022-08-03T05:17:14;9.80;;;3.70;;
58966;SDS011;44744;51.894;5.080;2022-08-03T05:18:14;7.30;;;3.50;;
58966;SDS011;44744;51.894;5.080;2022-08-03T05:19:14;11.00;;;3.60;;
58966;SDS011;44744;51.894;5.080;2022-08-03T05:20:15;14.50;;;3.90;;
58966;SDS011;44744;51.894;5.080;2022-08-03T05:21:15;11.20;;;3.90;;
58966;SDS011;44744;51.894;5.080;2022-08-03T05:22:15;13.20;;;3.70;;
58966;SDS011;44744;51.894;5.080;2022-08-03T05:23:16;8.60;;;3.30;;
58966;SDS011;44744;51.894;5.080;2022-08-03T05:24:16;16.10;;;3.60;;
58966;SDS011;44744;51.894;5.080;2022-08-03T05:25:16;9.70;;;4.10;;
58966;SDS011;44744;51.894;5.080;2022-08-03T05:26:17;11.00;;;3.70;;
58966;SDS011;44744;51.894;5.080;2022-08-03T05:27:17;9.90;;;3.80;;
58966;SDS011;44744;51.894;5.080;2022-08-03T05:28:17;7.70;;;3.50;;
58966;SDS011;44744;51.894;5.080;2022-08-03T05:29:18;13.60;;;3.80;;
58966;SDS011;44744;51.894;5.080;2022-08-03T05:30:18;13.10;;;3.70;;
58966;SDS011;44744;51.894;5.080;2022-08-03T05:31:19;10.00;;;3.60;;
58966;SDS011;44744;51.894;5.080;2022-08-03T05:32:19;10.40;;;3.40;;
58966;SDS011;44744;51.894;5.080;2022-08-03T05:33:19;9.20;;;3.90;;
58966;SDS011;44744;51.894;5.080;2022-08-03T05:34:20;7.70;;;3.10;;
58966;SDS011;44744;51.894;5.080;2022-08-03T05:35:20;12.40;;;3.50;;
58966;SDS011;44744;51.894;5.080;2022-08-03T05:36:20;11.00;;;3.60;;
58966;SDS011;44744;51.894;5.080;2022-08-03T05:37:20;14.00;;;3.90;;
58966;SDS011;44744;51.894;5.080;2022-08-03T05:38:21;10.60;;;3.50;;
58966;SDS011;44744;51.894;5.080;2022-08-03T05:39:21;9.10;;;3.90;;
58966;SDS011;44744;51.894;5.080;2022-08-03T05:40:21;11.00;;;3.60;;
58966;SDS011;44744;51.894;5.080;2022-08-03T05:41:22;9.80;;;3.60;;
58966;SDS011;44744;51.894;5.080;2022-08-03T05:42:22;10.60;;;4.00;;
58966;SDS011;44744;51.894;5.080;2022-08-03T05:43:22;9.50;;;3.40;;
58966;SDS011;44744;51.894;5.080;2022-08-03T05:44:23;12.00;;;3.40;;
58966;SDS011;44744;51.894;5.080;2022-08-03T05:45:23;10.90;;;3.40;;
58966;SDS011;44744;51.894;5.080;2022-08-03T05:46:24;10.70;;;3.50;;
58966;SDS011;44744;51.894;5.080;2022-08-03T05:47:24;10.00;;;3.50;;
58966;SDS011;44744;51.894;5.080;2022-08-03T05:48:25;12.10;;;4.40;;
58966;SDS011;44744;51.894;5.080;2022-08-03T05:49:25;12.00;;;3.80;;
58966;SDS011;44744;51.894;5.080;2022-08-03T05:50:25;12.20;;;4.00;;
58966;SDS011;44744;51.894;5.080;2022-08-03T05:51:26;13.70;;;3.70;;
58966;SDS011;44744;51.894;5.080;2022-08-03T05:52:26;16.70;;;3.80;;
58966;SDS011;44744;51.894;5.080;2022-08-03T05:53:26;9.20;;;3.30;;
58966;SDS011;44744;51.894;5.080;2022-08-03T05:54:27;9.00;;;3.40;;
58966;SDS011;44744;51.894;5.080;2022-08-03T05:55:27;10.30;;;3.30;;
58966;SDS011;44744;51.894;5.080;2022-08-03T05:56:27;9.70;;;4.30;;
58966;SDS011;44744;51.894;5.080;2022-08-03T05:57:28;13.10;;;3.30;;
58966;SDS011;44744;51.894;5.080;2022-08-03T05:58:28;16.40;;;4.40;;
58966;SDS011;44744;51.894;5.080;2022-08-03T05:59:28;9.00;;;3.30;;
58966;SDS011;44744;51.894;5.080;2022-08-03T06:00:29;9.70;;;3.50;;
58966;SDS011;44744;51.894;5.080;2022-08-03T06:01:29;8.80;;;3.50;;
58966;SDS011;44744;51.894;5.080;2022-08-03T06:02:29;11.50;;;3.70;;
58966;SDS011;44744;51.894;5.080;2022-08-03T06:03:29;16.10;;;4.10;;
58966;SDS011;44744;51.894;5.080;2022-08-03T06:04:30;7.30;;;3.60;;
58966;SDS011;44744;51.894;5.080;2022-08-03T06:05:30;9.20;;;3.50;;
58966;SDS011;44744;51.894;5.080;2022-08-03T06:06:30;14.00;;;4.30;;
58966;SDS011;44744;51.894;5.080;2022-08-03T06:07:31;13.10;;;4.10;;
58966;SDS011;44744;51.894;5.080;2022-08-03T06:08:32;9.80;;;3.70;;
58966;SDS011;44744;51.894;5.080;2022-08-03T06:09:33;11.50;;;4.20;;
58966;SDS011;44744;51.894;5.080;2022-08-03T06:10:33;9.50;;;3.40;;
58966;SDS011;44744;51.894;5.080;2022-08-03T06:11:34;10.00;;;3.80;;
58966;SDS011;44744;51.894;5.080;2022-08-03T06:12:34;11.10;;;3.80;;
58966;SDS011;44744;51.894;5.080;2022-08-03T06:13:34;12.10;;;3.30;;
58966;SDS011;44744;51.894;5.080;2022-08-03T06:14:35;9.00;;;3.70;;
58966;SDS011;44744;51.894;5.080;2022-08-03T06:15:35;20.80;;;4.30;;
58966;SDS011;44744;51.894;5.080;2022-08-03T06:16:35;9.80;;;3.60;;
58966;SDS011;44744;51.894;5.080;2022-08-03T06:17:43;13.20;;;3.80;;
58966;SDS011;44744;51.894;5.080;2022-08-03T06:18:44;11.90;;;4.30;;
58966;SDS011;44744;51.894;5.080;2022-08-03T06:19:44;8.50;;;3.70;;
58966;SDS011;44744;51.894;5.080;2022-08-03T06:20:44;10.90;;;3.10;;
58966;SDS011;44744;51.894;5.080;2022-08-03T06:21:45;12.60;;;3.70;;
58966;SDS011;44744;51.894;5.080;2022-08-03T06:22:45;10.10;;;3.80;;
58966;SDS011;44744;51.894;5.080;2022-08-03T06:24:47;9.30;;;3.30;;
58966;SDS011;44744;51.894;5.080;2022-08-03T06:25:47;8.90;;;3.50;;
58966;SDS011;44744;51.894;5.080;2022-08-03T06:26:48;13.80;;;3.20;;
58966;SDS011;44744;51.894;5.080;2022-08-03T06:27:48;18.10;;;4.30;;
58966;SDS011;44744;51.894;5.080;2022-08-03T06:28:49;14.10;;;4.30;;
58966;SDS011;44744;51.894;5.080;2022-08-03T06:29:49;11.80;;;4.30;;